createdAt,value
2018-11-13T00:00:20.970Z,6.88
2018-11-13T00:02:50.522Z,6.88
2018-11-13T00:05:19.402Z,6.85
2018-11-13T00:07:48.201Z,6.69
2018-11-13T00:10:17.042Z,6.61
2018-11-13T00:12:45.846Z,6.52
2018-11-13T00:15:14.601Z,6.41
2018-11-13T00:17:43.395Z,6.36
2018-11-13T00:20:14.789Z,6.29
2018-11-13T00:22:43.987Z,6.27
2018-11-13T00:25:15.243Z,6.32
2018-11-13T00:27:44.530Z,6.31
2018-11-13T00:30:19.546Z,6.26
2018-11-13T00:32:48.405Z,6.28
2018-11-13T00:35:18.310Z,6.27
2018-11-13T00:37:47.862Z,6.31
2018-11-13T00:40:17.509Z,6.31
2018-11-13T00:42:46.810Z,6.34
2018-11-13T00:45:15.606Z,6.32
2018-11-13T00:47:44.578Z,6.30
2018-11-13T00:50:15.627Z,6.29
2018-11-13T00:52:45.058Z,6.27
2018-11-13T00:55:14.204Z,6.26
2018-11-13T00:57:43.025Z,6.24
2018-11-13T01:00:14.788Z,6.21
2018-11-13T01:02:44.570Z,6.22
2018-11-13T01:05:15.311Z,6.19
2018-11-13T01:07:45.383Z,6.05
2018-11-13T01:10:15.465Z,5.97
2018-11-13T01:12:45.162Z,5.90
2018-11-13T01:15:15.252Z,5.93
2018-11-13T01:17:44.799Z,5.97
2018-11-13T01:20:14.491Z,6.01
2018-11-13T01:22:43.400Z,5.98
2018-11-13T01:25:13.232Z,5.94
2018-11-13T01:27:42.534Z,5.84
2018-11-13T01:30:12.766Z,5.75
2018-11-13T01:32:42.311Z,5.77
2018-11-13T01:35:14.118Z,5.74
2018-11-13T01:37:42.936Z,5.73
2018-11-13T01:40:12.918Z,5.74
2018-11-13T01:42:42.194Z,5.74
2018-11-13T01:45:12.513Z,5.77
2018-11-13T01:47:42.162Z,5.73
2018-11-13T01:50:11.760Z,5.78
2018-11-13T01:52:40.585Z,5.84
2018-11-13T01:55:11.452Z,5.77
2018-11-13T01:57:40.266Z,5.71
2018-11-13T02:00:16.096Z,5.71
2018-11-13T02:02:45.914Z,5.60
2018-11-13T02:05:14.862Z,5.58
2018-11-13T02:07:43.620Z,5.56
2018-11-13T02:10:12.477Z,5.58
2018-11-13T02:12:41.266Z,5.58
2018-11-13T02:15:10.560Z,5.61
2018-11-13T02:17:39.541Z,5.59
2018-11-13T02:20:13.816Z,5.57
2018-11-13T02:22:42.990Z,5.53
2018-11-13T02:25:14.059Z,5.41
2018-11-13T02:27:43.249Z,5.38
2018-11-13T02:30:15.235Z,5.26
2018-11-13T02:32:44.741Z,5.25
2018-11-13T02:35:14.206Z,5.29
2018-11-13T02:37:43.523Z,5.32
2018-11-13T02:40:12.392Z,5.29
2018-11-13T02:42:41.239Z,5.14
2018-11-13T02:45:11.916Z,5.13
2018-11-13T02:47:41.220Z,5.09
2018-11-13T02:50:11.771Z,5.11
2018-11-13T02:52:41.257Z,5.16
2018-11-13T02:55:10.873Z,5.18
2018-11-13T02:57:39.744Z,5.28
2018-11-13T03:00:11.467Z,5.27
2018-11-13T03:02:40.214Z,5.25
2018-11-13T03:05:11.194Z,5.22
2018-11-13T03:07:40.537Z,5.24
2018-11-13T03:10:11.431Z,5.32
2018-11-13T03:12:40.268Z,5.31
2018-11-13T03:15:11.354Z,5.32
2018-11-13T03:17:40.122Z,5.35
2018-11-13T03:20:11.331Z,5.40
2018-11-13T03:22:40.355Z,5.43
2018-11-13T03:25:11.543Z,5.43
2018-11-13T03:27:40.607Z,5.46
2018-11-13T03:30:16.140Z,5.42
2018-11-13T03:32:44.916Z,5.43
2018-11-13T03:35:13.707Z,5.44
2018-11-13T03:37:42.831Z,5.46
2018-11-13T03:40:12.393Z,5.47
2018-11-13T03:42:41.406Z,5.35
2018-11-13T03:45:11.325Z,5.25
2018-11-13T03:47:40.249Z,5.15
2018-11-13T03:50:13.002Z,5.07
2018-11-13T03:52:42.278Z,4.97
2018-11-13T03:55:12.002Z,4.98
2018-11-13T03:57:41.835Z,4.97
2018-11-13T04:00:13.107Z,4.98
2018-11-13T04:02:42.293Z,4.95
2018-11-13T04:05:12.657Z,4.94
2018-11-13T04:07:49.934Z,4.98
2018-11-13T04:10:19.585Z,5.04
2018-11-13T04:12:48.457Z,5.08
2018-11-13T04:15:18.818Z,5.13
2018-11-13T04:17:47.565Z,5.21
2018-11-13T04:20:17.509Z,5.23
2018-11-13T04:22:46.599Z,5.21
2018-11-13T04:25:15.768Z,5.17
2018-11-13T04:27:44.525Z,5.13
2018-11-13T04:30:15.658Z,5.11
2018-11-13T04:32:44.579Z,5.08
2018-11-13T04:35:14.568Z,4.98
2018-11-13T04:37:43.403Z,4.91
2018-11-13T04:40:15.738Z,4.91
2018-11-13T04:42:46.257Z,4.91
2018-11-13T04:45:16.184Z,4.83
2018-11-13T04:47:46.153Z,4.86
2018-11-13T04:50:16.112Z,4.82
2018-11-13T04:52:45.115Z,4.74
2018-11-13T04:55:14.270Z,4.70
2018-11-13T04:57:44.074Z,4.72
2018-11-13T05:00:16.050Z,4.66
2018-11-13T05:02:45.601Z,4.55
2018-11-13T05:05:15.613Z,4.51
2018-11-13T05:07:47.498Z,4.56
2018-11-13T05:10:16.399Z,4.60
2018-11-13T05:12:46.125Z,4.68
2018-11-13T05:15:14.916Z,4.79
2018-11-13T05:17:44.321Z,4.84
2018-11-13T05:20:14.569Z,4.85
2018-11-13T05:22:43.385Z,4.84
2018-11-13T05:25:14.223Z,4.88
2018-11-13T05:27:43.448Z,4.93
2018-11-13T05:30:16.083Z,4.94
2018-11-13T05:32:44.977Z,4.92
2018-11-13T05:35:15.095Z,4.90
2018-11-13T05:37:44.692Z,4.88
2018-11-13T05:40:15.645Z,4.92
2018-11-13T05:42:44.833Z,4.82
2018-11-13T05:45:14.954Z,4.88
2018-11-13T05:47:43.859Z,5.00
2018-11-13T05:50:13.895Z,5.07
2018-11-13T05:52:43.558Z,5.16
2018-11-13T05:55:12.754Z,5.27
2018-11-13T05:57:41.712Z,5.31
2018-11-13T06:00:14.675Z,5.36
2018-11-13T06:02:43.813Z,5.39
2018-11-13T06:05:13.506Z,5.39
2018-11-13T06:07:42.391Z,5.30
2018-11-13T06:10:12.386Z,5.27
2018-11-13T06:12:41.244Z,5.36
2018-11-13T06:15:10.469Z,5.35
2018-11-13T06:17:39.301Z,5.42
2018-11-13T06:20:09.807Z,5.59
2018-11-13T06:22:38.954Z,5.63
2018-11-13T06:25:09.692Z,5.71
2018-11-13T06:27:38.589Z,5.75
2018-11-13T06:30:13.932Z,5.78
2018-11-13T06:32:42.776Z,5.80
2018-11-13T06:35:11.594Z,5.82
2018-11-13T06:37:40.737Z,5.89
2018-11-13T06:40:10.311Z,6.02
2018-11-13T06:42:39.602Z,6.05
2018-11-13T06:45:12.747Z,6.12
2018-11-13T06:47:42.238Z,6.22
2018-11-13T06:50:11.612Z,6.38
2018-11-13T06:52:40.890Z,6.47
2018-11-13T06:55:13.088Z,6.47
2018-11-13T06:57:41.866Z,6.44
2018-11-13T07:00:11.223Z,6.53
2018-11-13T07:02:40.202Z,6.53
2018-11-13T07:05:12.481Z,6.59
2018-11-13T07:07:42.076Z,6.66
2018-11-13T07:10:13.308Z,6.73
2018-11-13T07:12:43.544Z,6.80
2018-11-13T07:15:16.316Z,6.84
2018-11-13T07:17:46.382Z,6.96
2018-11-13T07:20:19.058Z,7.01
2018-11-13T07:22:47.953Z,7.17
2018-11-13T07:25:16.808Z,7.33
2018-11-13T07:27:46.062Z,7.46
2018-11-13T07:30:16.305Z,7.54
2018-11-13T07:32:45.071Z,7.55
2018-11-13T07:35:15.571Z,7.59
2018-11-13T07:37:47.078Z,7.66
2018-11-13T07:40:15.894Z,7.71
2018-11-13T07:42:44.723Z,7.71
2018-11-13T07:45:14.553Z,7.80
2018-11-13T07:47:44.620Z,7.86
2018-11-13T07:50:14.126Z,7.91
2018-11-13T07:52:42.978Z,8.00
2018-11-13T07:55:13.095Z,8.10
2018-11-13T07:57:41.878Z,8.08
2018-11-13T08:00:13.564Z,8.10
2018-11-13T08:02:43.198Z,8.11
2018-11-13T08:05:12.165Z,8.11
2018-11-13T08:07:41.078Z,8.18
2018-11-13T08:10:11.615Z,8.18
2018-11-13T08:12:40.991Z,8.27
2018-11-13T08:15:12.305Z,8.43
2018-11-13T08:17:41.527Z,8.54
2018-11-13T08:20:12.675Z,8.65
2018-11-13T08:22:41.903Z,8.80
2018-11-13T08:25:11.234Z,8.88
2018-11-13T08:27:41.026Z,8.94
2018-11-13T08:30:12.608Z,9.00
2018-11-13T08:32:42.245Z,9.05
2018-11-13T08:35:11.212Z,9.12
2018-11-13T08:37:40.637Z,9.12
2018-11-13T08:40:12.403Z,9.17
2018-11-13T08:42:41.614Z,9.26
2018-11-13T08:45:13.594Z,9.41
2018-11-13T08:47:42.667Z,9.48
2018-11-13T08:50:12.125Z,9.56
2018-11-13T08:52:41.912Z,9.69
2018-11-13T08:55:11.433Z,9.78
2018-11-13T08:57:40.363Z,9.85
2018-11-13T09:00:11.396Z,9.89
2018-11-13T09:02:41.123Z,9.93
2018-11-13T09:05:10.676Z,9.99
2018-11-13T09:07:40.103Z,10.18
2018-11-13T09:10:11.558Z,10.27
2018-11-13T09:12:40.997Z,10.26
2018-11-13T09:15:11.764Z,10.22
2018-11-13T09:17:40.869Z,10.02
2018-11-13T09:20:11.484Z,10.07
2018-11-13T09:22:40.481Z,10.15
2018-11-13T09:25:12.211Z,10.17
2018-11-13T09:27:41.076Z,10.26
2018-11-13T09:30:12.515Z,10.28
2018-11-13T09:32:42.287Z,10.26
2018-11-13T09:35:12.403Z,10.41
2018-11-13T09:37:41.919Z,10.43
2018-11-13T09:40:13.288Z,10.33
2018-11-13T09:42:42.945Z,10.34
2018-11-13T09:45:12.570Z,10.41
2018-11-13T09:47:41.504Z,10.36
2018-11-13T09:50:12.485Z,10.47
2018-11-13T09:52:41.982Z,10.55
2018-11-13T09:55:12.106Z,10.46
2018-11-13T09:57:40.947Z,10.45
2018-11-13T10:00:20.149Z,10.49
2018-11-13T10:02:51.843Z,10.65
2018-11-13T10:05:21.180Z,10.52
2018-11-13T10:07:50.786Z,10.56
2018-11-13T10:10:19.675Z,10.67
2018-11-13T10:12:48.808Z,10.61
2018-11-13T10:15:20.256Z,10.78
2018-11-13T10:17:49.175Z,11.00
2018-11-13T10:20:18.455Z,11.11
2018-11-13T10:22:48.678Z,11.19
2018-11-13T10:25:17.681Z,11.13
2018-11-13T10:27:46.479Z,11.08
2018-11-13T10:30:16.911Z,11.07
2018-11-13T10:32:46.244Z,11.19
2018-11-13T10:35:16.327Z,11.28
2018-11-13T10:37:45.153Z,11.30
2018-11-13T10:40:16.488Z,11.22
2018-11-13T10:42:45.514Z,11.27
2018-11-13T10:45:15.919Z,11.24
2018-11-13T10:47:51.261Z,11.36
2018-11-13T10:50:21.713Z,11.43
2018-11-13T10:52:50.679Z,11.53
2018-11-13T10:55:19.559Z,11.54
2018-11-13T10:57:48.364Z,11.46
2018-11-13T11:00:22.802Z,11.59
2018-11-13T11:02:56.960Z,11.64
2018-11-13T11:05:27.163Z,11.53
2018-11-13T11:07:56.425Z,11.60
2018-11-13T11:10:25.674Z,11.61
2018-11-13T11:12:54.608Z,11.64
2018-11-13T11:15:23.518Z,11.68
2018-11-13T11:17:52.551Z,11.72
2018-11-13T11:20:21.435Z,11.78
2018-11-13T11:22:50.503Z,11.78
2018-11-13T11:25:19.467Z,11.80
2018-11-13T11:27:48.350Z,11.82
2018-11-13T11:30:18.816Z,11.78
2018-11-13T11:32:47.707Z,11.69
2018-11-13T11:35:16.484Z,11.69
2018-11-13T11:37:45.262Z,11.81
2018-11-13T11:40:14.108Z,11.85
2018-11-13T11:42:42.894Z,11.91
2018-11-13T11:45:13.979Z,11.91
2018-11-13T11:47:43.139Z,11.86
2018-11-13T11:50:13.093Z,11.88
2018-11-13T11:52:41.961Z,11.95
2018-11-13T11:55:11.767Z,11.84
2018-11-13T11:57:40.608Z,11.82
2018-11-13T12:00:16.754Z,11.84
2018-11-13T12:02:45.538Z,11.86
2018-11-13T12:05:14.292Z,11.91
2018-11-13T12:07:43.059Z,11.97
2018-11-13T12:10:13.207Z,12.06
2018-11-13T12:12:42.057Z,12.09
2018-11-13T12:15:12.240Z,12.11
2018-11-13T12:17:41.263Z,12.07
2018-11-13T12:20:12.041Z,12.01
2018-11-13T12:22:40.801Z,12.06
2018-11-13T12:25:17.443Z,12.13
2018-11-13T12:27:46.228Z,12.24
2018-11-13T12:30:20.422Z,12.36
2018-11-13T12:32:50.008Z,12.39
2018-11-13T12:35:19.734Z,12.30
2018-11-13T12:37:48.573Z,12.18
2018-11-13T12:40:18.718Z,12.15
2018-11-13T12:42:48.479Z,12.18
2018-11-13T12:45:17.753Z,12.21
2018-11-13T12:47:46.718Z,12.22
2018-11-13T12:50:17.031Z,12.21
2018-11-13T12:52:45.918Z,12.18
2018-11-13T12:55:18.145Z,12.23
2018-11-13T12:57:47.251Z,12.23
2018-11-13T13:00:19.623Z,12.20
2018-11-13T13:02:48.532Z,12.25
2018-11-13T13:05:17.477Z,12.22
2018-11-13T13:07:46.383Z,12.27
2018-11-13T13:10:16.262Z,12.25
2018-11-13T13:12:45.092Z,12.28
2018-11-13T13:15:15.506Z,12.33
2018-11-13T13:17:44.637Z,12.41
2018-11-13T13:20:17.142Z,12.38
2018-11-13T13:22:46.987Z,12.33
2018-11-13T13:25:17.092Z,12.35
2018-11-13T13:27:46.154Z,12.38
2018-11-13T13:30:18.303Z,12.34
2018-11-13T13:32:47.784Z,12.32
2018-11-13T13:35:59.260Z,12.32
2018-11-13T13:38:28.195Z,12.33
2018-11-13T13:40:58.498Z,12.31
2018-11-13T13:43:28.103Z,12.33
2018-11-13T13:45:57.255Z,12.36
2018-11-13T13:48:26.254Z,12.31
2018-11-13T13:50:55.095Z,12.28
2018-11-13T13:53:25.032Z,12.30
2018-11-13T13:55:54.044Z,12.34
2018-11-13T13:58:23.688Z,12.32
2018-11-13T14:00:53.067Z,12.36
2018-11-13T14:03:22.002Z,12.38
2018-11-13T14:05:50.839Z,12.39
2018-11-13T14:08:20.038Z,12.37
2018-11-13T14:10:48.906Z,12.37
2018-11-13T14:13:17.950Z,12.34
2018-11-13T14:15:47.155Z,12.36
2018-11-13T14:18:16.004Z,12.39
2018-11-13T14:20:44.939Z,12.42
2018-11-13T14:23:13.904Z,12.41
2018-11-13T14:25:42.685Z,12.41
2018-11-13T14:28:11.543Z,12.39
2018-11-13T14:30:40.314Z,12.37
2018-11-13T14:33:10.368Z,12.29
2018-11-13T14:35:39.360Z,12.23
2018-11-13T14:38:08.360Z,12.19
2018-11-13T14:40:40.637Z,12.19
2018-11-13T14:43:09.871Z,12.18
2018-11-13T14:45:38.652Z,12.15
2018-11-13T14:48:08.129Z,12.12
2018-11-13T14:50:37.553Z,12.11
2018-11-13T14:53:07.319Z,12.11
2018-11-13T14:55:37.626Z,12.07
2018-11-13T14:58:07.638Z,12.08
2018-11-13T15:00:37.279Z,12.08
2018-11-13T15:03:07.871Z,12.04
2018-11-13T15:05:36.980Z,12.01
2018-11-13T15:08:06.928Z,11.98
2018-11-13T15:10:49.025Z,11.91
2018-11-13T15:13:18.246Z,11.83
2018-11-13T15:15:47.215Z,11.75
2018-11-13T15:18:16.092Z,11.73
2018-11-13T15:20:45.539Z,11.67
2018-11-13T15:23:14.783Z,11.56
2018-11-13T15:25:43.651Z,11.50
2018-11-13T15:28:12.853Z,11.43
2018-11-13T15:30:44.161Z,11.36
2018-11-13T15:33:14.804Z,11.24
2018-11-13T15:35:43.616Z,11.28
2018-11-13T15:38:12.542Z,11.25
2018-11-13T15:40:41.414Z,11.22
2018-11-13T15:43:10.371Z,11.17
2018-11-13T15:45:39.178Z,11.14
2018-11-13T15:48:09.892Z,11.14
2018-11-13T15:50:39.190Z,11.10
2018-11-13T15:53:08.358Z,11.11
2018-11-13T15:55:37.168Z,11.08
2018-11-13T15:58:06.646Z,11.04
2018-11-13T16:00:37.044Z,10.99
2018-11-13T16:03:09.687Z,10.94
2018-11-13T16:05:46.098Z,10.88
2018-11-13T16:08:15.005Z,10.85
2018-11-13T16:10:44.009Z,10.79
2018-11-13T16:13:12.864Z,10.75
2018-11-13T16:15:42.151Z,10.74
2018-11-13T16:18:13.421Z,10.74
2018-11-13T16:20:42.482Z,10.71
2018-11-13T16:23:11.407Z,10.67
2018-11-13T16:25:40.141Z,10.69
2018-11-13T16:28:08.962Z,10.62
2018-11-13T16:30:38.796Z,10.59
2018-11-13T16:33:08.313Z,10.57
2018-11-13T16:35:37.256Z,10.55
2018-11-13T16:38:07.990Z,10.45
2018-11-13T16:40:36.881Z,10.41
2018-11-13T16:43:06.134Z,10.36
2018-11-13T16:45:35.424Z,10.36
2018-11-13T16:48:05.101Z,10.36
2018-11-13T16:50:35.358Z,10.32
2018-11-13T16:53:04.226Z,10.35
2018-11-13T16:55:38.905Z,10.30
2018-11-13T16:58:09.461Z,10.27
2018-11-13T17:00:38.758Z,10.26
2018-11-13T17:03:07.836Z,10.23
2018-11-13T17:05:36.903Z,10.20
2018-11-13T17:08:06.257Z,10.14
2018-11-13T17:10:35.346Z,10.10
2018-11-13T17:13:04.537Z,10.09
2018-11-13T17:15:33.380Z,10.10
2018-11-13T17:18:03.164Z,10.09
2018-11-13T17:20:32.140Z,10.09
2018-11-13T17:23:01.135Z,10.04
2018-11-13T17:25:32.186Z,9.98
2018-11-13T17:28:00.955Z,9.89
2018-11-13T17:30:31.249Z,9.86
2018-11-13T17:33:01.240Z,9.79
2018-11-13T17:35:30.753Z,9.68
2018-11-13T17:38:00.628Z,9.58
2018-11-13T17:40:32.071Z,9.52
2018-11-13T17:43:03.142Z,9.43
2018-11-13T17:45:35.119Z,9.40
2018-11-13T17:48:04.061Z,9.33
2018-11-13T17:50:34.241Z,9.31
2018-11-13T17:53:03.201Z,9.27
2018-11-13T17:55:32.043Z,9.21
2018-11-13T17:58:05.223Z,9.17
2018-11-13T18:00:35.821Z,9.16
2018-11-13T18:03:05.614Z,9.09
2018-11-13T18:05:35.016Z,9.00
2018-11-13T18:08:04.579Z,8.94
2018-11-13T18:10:34.215Z,8.93
2018-11-13T18:13:03.025Z,8.86
2018-11-13T18:15:31.990Z,8.84
2018-11-13T18:18:01.203Z,8.80
2018-11-13T18:20:31.253Z,8.72
2018-11-13T18:23:00.071Z,8.65
2018-11-13T18:25:29.521Z,8.54
2018-11-13T18:28:00.354Z,8.53
2018-11-13T18:30:31.445Z,8.52
2018-11-13T18:33:01.135Z,8.45
2018-11-13T18:35:31.183Z,8.43
2018-11-13T18:38:01.150Z,8.40
2018-11-13T18:40:30.142Z,8.38
2018-11-13T18:43:00.205Z,8.36
2018-11-13T18:45:30.950Z,8.35
2018-11-13T18:47:59.948Z,8.27
2018-11-13T18:50:33.003Z,8.23
2018-11-13T18:53:01.919Z,8.27
2018-11-13T18:55:31.074Z,8.29
2018-11-13T18:58:00.637Z,8.31
2018-11-13T19:00:30.647Z,8.29
2018-11-13T19:03:00.249Z,8.31
2018-11-13T19:05:29.139Z,8.29
2018-11-13T19:07:58.444Z,8.27
2018-11-13T19:10:34.435Z,8.21
2018-11-13T19:13:04.309Z,8.21
2018-11-13T19:15:34.606Z,8.24
2018-11-13T19:18:03.597Z,8.23
2018-11-13T19:20:32.623Z,8.22
2018-11-13T19:23:01.452Z,8.25
2018-11-13T19:25:31.851Z,8.25
2018-11-13T19:28:02.140Z,8.19
2018-11-13T19:30:31.103Z,8.19
2018-11-13T19:32:59.943Z,8.23
2018-11-13T19:35:28.876Z,8.24
2018-11-13T19:37:57.854Z,8.23
2018-11-13T19:40:27.839Z,8.25
2018-11-13T19:42:57.756Z,8.25
2018-11-13T19:45:26.674Z,8.26
2018-11-13T19:47:55.543Z,8.20
2018-11-13T19:50:27.821Z,8.13
2018-11-13T19:52:57.015Z,8.08
2018-11-13T19:55:26.537Z,8.00
2018-11-13T19:57:55.373Z,7.97
2018-11-13T20:00:29.300Z,7.93
2018-11-13T20:02:59.526Z,7.90
2018-11-13T20:05:29.251Z,7.88
2018-11-13T20:07:58.040Z,7.87
2018-11-13T20:10:28.148Z,7.88
2018-11-13T20:12:58.582Z,7.89
2018-11-13T20:15:28.067Z,7.83
2018-11-13T20:17:57.618Z,7.81
2018-11-13T20:20:27.707Z,7.83
2018-11-13T20:22:57.024Z,7.81
2018-11-13T20:25:27.934Z,7.75
2018-11-13T20:27:56.723Z,7.68
2018-11-13T20:30:31.779Z,7.57
2018-11-13T20:33:00.918Z,7.50
2018-11-13T20:35:30.527Z,7.41
2018-11-13T20:37:59.676Z,7.36
2018-11-13T20:40:29.791Z,7.35
2018-11-13T20:43:00.115Z,7.34
2018-11-13T20:45:28.947Z,7.36
2018-11-13T20:47:57.703Z,7.33
2018-11-13T20:50:27.801Z,7.33
2018-11-13T20:52:56.624Z,7.33
2018-11-13T20:55:25.450Z,7.34
2018-11-13T20:57:54.400Z,7.31
2018-11-13T21:00:28.189Z,7.27
2018-11-13T21:02:57.062Z,7.30
2018-11-13T21:05:25.931Z,7.28
2018-11-13T21:07:54.867Z,7.28
2018-11-13T21:10:27.971Z,7.30
2018-11-13T21:12:56.956Z,7.33
2018-11-13T21:15:26.574Z,7.33
2018-11-13T21:17:55.369Z,7.29
2018-11-13T21:20:24.554Z,7.25
2018-11-13T21:22:53.298Z,7.15
2018-11-13T21:25:23.279Z,7.11
2018-11-13T21:27:55.970Z,7.01
2018-11-13T21:30:24.836Z,6.96
2018-11-13T21:32:54.160Z,6.99
2018-11-13T21:35:23.331Z,6.95
2018-11-13T21:37:53.539Z,6.91
2018-11-13T21:40:24.452Z,6.90
2018-11-13T21:42:53.792Z,6.96
2018-11-13T21:45:23.720Z,6.99
2018-11-13T21:47:52.555Z,6.97
2018-11-13T21:50:22.931Z,6.95
2018-11-13T21:52:51.780Z,6.99
2018-11-13T21:55:21.646Z,7.02
2018-11-13T21:57:50.687Z,7.02
2018-11-13T22:00:23.231Z,7.01
2018-11-13T22:02:54.754Z,7.02
2018-11-13T22:05:24.263Z,7.01
2018-11-13T22:07:53.138Z,6.98
2018-11-13T22:10:21.988Z,6.98
2018-11-13T22:12:50.912Z,6.96
2018-11-13T22:15:21.289Z,6.86
2018-11-13T22:17:50.291Z,6.76
2018-11-13T22:20:20.254Z,6.64
2018-11-13T22:22:50.121Z,6.66
2018-11-13T22:25:21.032Z,6.61
2018-11-13T22:27:51.445Z,6.56
2018-11-13T22:30:22.734Z,6.55
2018-11-13T22:32:51.530Z,6.47
2018-11-13T22:35:21.235Z,6.36
2018-11-13T22:37:50.363Z,6.20
2018-11-13T22:40:20.578Z,5.99
2018-11-13T22:42:49.739Z,5.95
2018-11-13T22:45:25.900Z,5.94
2018-11-13T22:47:55.007Z,5.94
2018-11-13T22:50:25.183Z,5.93
2018-11-13T22:52:54.298Z,5.98
2018-11-13T22:55:23.212Z,5.95
2018-11-13T22:57:53.609Z,5.92
2018-11-13T23:00:24.724Z,5.97
2018-11-13T23:02:54.590Z,6.01
2018-11-13T23:05:23.414Z,6.04
2018-11-13T23:07:52.447Z,6.07
2018-11-13T23:10:21.238Z,6.12
2018-11-13T23:12:50.027Z,6.15
2018-11-13T23:15:21.335Z,6.10
2018-11-13T23:17:50.182Z,6.04
2018-11-13T23:20:20.070Z,5.78
2018-11-13T23:22:49.298Z,5.72
2018-11-13T23:25:19.084Z,5.66
2018-11-13T23:27:48.880Z,5.57
2018-11-13T23:30:32.742Z,5.55
2018-11-13T23:33:01.798Z,5.56
2018-11-13T23:35:30.749Z,5.48
2018-11-13T23:38:00.167Z,5.43
2018-11-13T23:40:29.839Z,5.56
2018-11-13T23:42:58.626Z,5.63
2018-11-13T23:45:27.722Z,5.67
2018-11-13T23:47:56.506Z,5.74
2018-11-13T23:50:25.527Z,5.77
2018-11-13T23:52:54.329Z,5.85
2018-11-13T23:55:23.129Z,5.89
2018-11-13T23:57:51.919Z,5.94
